Time;durP1;ratioP1;P1;durP2;ratioP2;P2;SDS_P1;SDS_P2;PMS_P1;PMS_P2;Temp;Humidity;BMP_temperature;BMP_pressure;BME280_temperature;BME280_humidity;BME280_pressure;Samples;Min_cycle;Max_cycle;Signal;HPM_P1;HPM_P2
2022/10/03 00:00:18;;;;;;;1.58;0.80;;;17.40;85.60;;;;;;5030132;28;20277;-67
2022/10/03 00:03:28;;;;;;;1.55;0.70;;;17.40;85.60;;;;;;5043818;28;20175;-67
2022/10/03 00:06:30;;;;;;;1.17;0.90;;;17.40;85.60;;;;;;5042785;28;20214;-67
2022/10/03 00:09:15;;;;;;;0.65;0.65;;;17.40;85.50;;;;;;5051363;28;20251;-67
2022/10/03 00:12:13;;;;;;;0.98;0.77;;;17.40;85.50;;;;;;5044396;28;20198;-67
2022/10/03 00:14:53;;;;;;;2.08;0.85;;;17.40;85.50;;;;;;5050181;28;20202;-67
2022/10/03 00:17:30;;;;;;;2.15;0.82;;;17.50;85.60;;;;;;5035633;28;20197;-67
2022/10/03 00:20:14;;;;;;;1.52;0.80;;;17.40;85.40;;;;;;5052749;28;20228;-67
2022/10/03 00:23:15;;;;;;;1.42;1.00;;;17.40;85.40;;;;;;5052491;28;20190;-67
2022/10/03 00:26:29;;;;;;;1.67;1.00;;;17.50;85.50;;;;;;5049304;28;20187;-67
2022/10/03 00:29:24;;;;;;;1.05;0.77;;;17.40;85.40;;;;;;5052613;28;20210;-67
2022/10/03 00:32:25;;;;;;;1.40;0.75;;;17.40;85.60;;;;;;5035527;28;20224;-67
2022/10/03 00:35:00;;;;;;;1.17;0.85;;;17.50;85.60;;;;;;5033305;28;20192;-67
2022/10/03 00:37:53;;;;;;;2.15;0.95;;;17.40;85.40;;;;;;5041854;28;20225;-68
2022/10/03 00:41:03;;;;;;;1.67;1.08;;;17.40;85.60;;;;;;5048864;28;20215;-67
2022/10/03 00:44:10;;;;;;;1.40;1.00;;;17.40;85.50;;;;;;5032333;28;20259;-67
2022/10/03 00:47:01;;;;;;;1.05;0.82;;;17.40;85.30;;;;;;5027592;28;20199;-67
2022/10/03 00:50:05;;;;;;;1.13;0.90;;;17.40;85.60;;;;;;5033880;28;20199;-67
2022/10/03 00:53:05;;;;;;;1.40;1.02;;;17.40;85.60;;;;;;5015968;28;20190;-67
2022/10/03 00:56:14;;;;;;;1.02;0.80;;;17.40;85.30;;;;;;5015775;28;20200;-67
2022/10/03 00:59:05;;;;;;;1.20;1.02;;;17.40;85.40;;;;;;5015654;28;20686;-67
2022/10/03 01:01:47;;;;;;;1.20;1.05;;;17.40;85.60;;;;;;5015402;28;20272;-67
2022/10/03 01:04:31;;;;;;;0.80;0.80;;;17.40;85.40;;;;;;5031983;28;20278;-67
2022/10/03 01:07:21;;;;;;;1.23;0.90;;;17.40;85.30;;;;;;5031687;28;20191;-67
2022/10/03 01:10:14;;;;;;;1.08;0.98;;;17.40;85.30;;;;;;5015275;28;20293;-67
2022/10/03 01:13:07;;;;;;;0.80;0.80;;;17.40;85.40;;;;;;5032976;28;20543;-67
2022/10/03 01:16:05;;;;;;;0.80;0.80;;;17.40;85.50;;;;;;5031925;28;20215;-67
2022/10/03 01:18:58;;;;;;;1.67;1.38;;;17.40;85.30;;;;;;5015003;28;20257;-67
2022/10/03 01:21:51;;;;;;;1.27;0.90;;;17.40;85.20;;;;;;5015336;28;20219;-67
2022/10/03 01:25:05;;;;;;;1.90;1.10;;;17.40;85.30;;;;;;5032714;28;20182;-67
2022/10/03 01:30:53;;;;;;;2.53;1.02;;;17.40;85.20;;;;;;5031381;28;20195;-67
2022/10/03 01:33:41;;;;;;;1.70;0.95;;;17.40;85.20;;;;;;5033132;28;20186;-67
2022/10/03 01:36:33;;;;;;;2.00;1.00;;;17.40;85.40;;;;;;5032221;28;20188;-67
2022/10/03 01:39:20;;;;;;;1.00;0.90;;;17.40;85.30;;;;;;5032436;28;20211;-67
2022/10/03 01:42:03;;;;;;;0.85;0.80;;;17.40;85.10;;;;;;5031112;28;20211;-67
2022/10/03 01:45:00;;;;;;;1.10;0.90;;;17.40;85.10;;;;;;5014931;28;20183;-67
2022/10/03 01:47:56;;;;;;;1.85;1.10;;;17.40;85.10;;;;;;5018813;28;20222;-67
2022/10/03 01:50:47;;;;;;;1.95;1.25;;;17.40;85.30;;;;;;5047754;28;20199;-67
2022/10/03 01:53:28;;;;;;;1.20;0.95;;;17.40;85.20;;;;;;5047641;28;20195;-67
2022/10/03 01:56:25;;;;;;;1.08;0.98;;;17.40;85.10;;;;;;5032110;28;20187;-67
2022/10/03 01:59:22;;;;;;;1.35;1.00;;;17.40;85.10;;;;;;5014537;28;20625;-67
2022/10/03 02:02:06;;;;;;;1.60;1.20;;;17.40;85.10;;;;;;5030936;28;20214;-67
2022/10/03 02:05:01;;;;;;;1.60;1.08;;;17.40;85.30;;;;;;5014259;28;20556;-67
2022/10/03 02:08:03;;;;;;;1.20;0.80;;;17.40;85.10;;;;;;5015337;28;20221;-67
2022/10/03 02:13:38;;;;;;;2.05;1.17;;;17.40;85.10;;;;;;5050521;28;20240;-67
2022/10/03 02:16:42;;;;;;;1.50;1.10;;;17.40;85.10;;;;;;5034567;28;20255;-66
2022/10/03 02:19:23;;;;;;;1.08;0.80;;;17.40;85.20;;;;;;5043678;28;20231;-67
2022/10/03 02:21:56;;;;;;;1.33;1.23;;;17.40;85.10;;;;;;5049351;28;20325;-67
2022/10/03 02:24:42;;;;;;;1.13;1.02;;;17.40;85.00;;;;;;5051186;28;20208;-67
2022/10/03 02:28:00;;;;;;;1.15;1.00;;;17.40;85.20;;;;;;5067677;28;20174;-67
2022/10/03 02:31:24;;;;;;;1.15;0.95;;;17.40;85.10;;;;;;5046283;28;20206;-67
2022/10/03 02:34:08;;;;;;;1.30;0.95;;;17.40;85.00;;;;;;5041478;28;20690;-67
2022/10/03 02:37:10;;;;;;;1.08;0.90;;;17.40;85.20;;;;;;5067475;28;20192;-67
2022/10/03 02:39:54;;;;;;;1.38;1.10;;;17.40;85.20;;;;;;5034192;28;20221;-67
2022/10/03 02:42:41;;;;;;;1.77;1.30;;;17.40;85.20;;;;;;5052321;28;20217;-67
2022/10/03 02:45:45;;;;;;;1.10;0.90;;;17.40;85.10;;;;;;5034635;28;20179;-67
2022/10/03 02:48:28;;;;;;;1.10;1.10;;;17.40;85.00;;;;;;5050946;28;20181;-67
2022/10/03 02:51:43;;;;;;;1.23;1.02;;;17.40;85.10;;;;;;5034609;28;20197;-67
2022/10/03 02:54:36;;;;;;;0.80;0.80;;;17.40;85.20;;;;;;5050755;28;20195;-67
2022/10/03 02:57:38;;;;;;;1.73;0.90;;;17.40;85.00;;;;;;5050545;28;20193;-67
2022/10/03 03:00:20;;;;;;;1.83;1.30;;;17.40;85.00;;;;;;5050550;28;20217;-67
2022/10/03 03:03:49;;;;;;;2.13;1.10;;;17.40;85.10;;;;;;5050653;28;20193;-67
2022/10/03 03:06:53;;;;;;;1.83;0.90;;;17.40;85.00;;;;;;5050594;28;20190;-67
2022/10/03 03:10:16;;;;;;;1.70;1.23;;;17.40;85.00;;;;;;5050724;28;20205;-68
2022/10/03 03:13:06;;;;;;;1.58;1.20;;;17.40;85.00;;;;;;5034174;28;20194;-67
2022/10/03 03:16:16;;;;;;;1.33;1.02;;;17.40;85.00;;;;;;5050778;28;20304;-67
2022/10/03 03:19:04;;;;;;;1.27;1.17;;;17.40;85.00;;;;;;5054561;28;20167;-67
2022/10/03 03:22:00;;;;;;;1.10;0.90;;;17.40;85.00;;;;;;5054306;28;20256;-67
2022/10/03 03:25:15;;;;;;;1.45;1.00;;;17.40;85.00;;;;;;5037757;28;20268;-68
2022/10/03 03:28:18;;;;;;;1.25;1.08;;;17.40;84.90;;;;;;5054140;28;20191;-67
2022/10/03 03:31:05;;;;;;;1.45;1.08;;;17.40;85.00;;;;;;5054560;28;20201;-67
2022/10/03 03:34:07;;;;;;;1.23;1.00;;;17.40;85.00;;;;;;5037580;28;20257;-67
2022/10/03 03:36:59;;;;;;;1.38;1.27;;;17.40;85.00;;;;;;5054137;28;20186;-67
2022/10/03 03:40:06;;;;;;;1.20;1.10;;;17.40;84.80;;;;;;5070910;28;20263;-67
2022/10/03 03:42:59;;;;;;;1.95;1.13;;;17.40;84.90;;;;;;5017208;28;20292;-67
2022/10/03 03:45:59;;;;;;;1.27;0.90;;;17.40;85.00;;;;;;5037301;28;20190;-67
2022/10/03 03:49:03;;;;;;;1.05;0.93;;;17.40;84.80;;;;;;5070742;28;20179;-67
2022/10/03 03:51:37;;;;;;;3.22;0.90;;;17.40;84.80;;;;;;4957841;28;20238;-67
2022/10/03 03:54:49;;;;;;;1.80;1.08;;;17.40;84.90;;;;;;5022977;28;20200;-67
2022/10/03 03:57:40;;;;;;;1.35;1.25;;;17.40;84.80;;;;;;5053451;28;20183;-67
2022/10/03 04:00:41;;;;;;;1.10;1.00;;;17.40;84.60;;;;;;5036896;28;20252;-67
2022/10/03 04:03:32;;;;;;;1.13;1.08;;;17.40;84.70;;;;;;5043578;28;20198;-67
2022/10/03 04:06:56;;;;;;;1.10;1.10;;;17.30;84.70;;;;;;5053496;28;20246;-67
2022/10/03 04:09:58;;;;;;;2.67;1.35;;;17.40;84.70;;;;;;4986316;28;20231;-67
2022/10/03 04:12:45;;;;;;;1.17;1.00;;;17.40;84.60;;;;;;5053634;28;20209;-67
2022/10/03 04:15:27;;;;;;;1.33;1.23;;;17.40;84.60;;;;;;5053722;28;20187;-67
2022/10/03 04:21:04;;;;;;;1.20;1.00;;;17.40;84.60;;;;;;5053056;28;20256;-67
2022/10/03 04:23:56;;;;;;;1.35;1.25;;;17.40;84.60;;;;;;5054485;28;20631;-67
2022/10/03 04:26:38;;;;;;;1.35;1.25;;;17.40;84.60;;;;;;5036581;28;20181;-67
2022/10/03 04:29:39;;;;;;;1.52;1.40;;;17.30;84.50;;;;;;5052386;28;20297;-67
2022/10/03 04:32:30;;;;;;;1.50;0.70;;;17.40;84.60;;;;;;5036427;28;20209;-67
2022/10/03 04:35:37;;;;;;;1.77;1.02;;;17.40;84.50;;;;;;5053388;28;20194;-67
2022/10/03 04:38:39;;;;;;;1.52;1.08;;;17.40;84.50;;;;;;5052771;28;20182;-67
2022/10/03 04:41:37;;;;;;;1.25;1.15;;;17.30;84.40;;;;;;5069878;28;20210;-67
2022/10/03 04:44:42;;;;;;;1.17;1.08;;;17.40;84.40;;;;;;5052803;28;20567;-67
2022/10/03 04:47:37;;;;;;;1.33;1.17;;;17.40;84.30;;;;;;5069596;28;20175;-67
2022/10/03 04:50:32;;;;;;;1.17;1.02;;;17.40;84.30;;;;;;5053292;28;20221;-67
2022/10/03 04:53:23;;;;;;;1.88;1.10;;;17.40;84.40;;;;;;5069401;28;20178;-67
2022/10/03 04:56:20;;;;;;;1.20;1.10;;;17.40;84.20;;;;;;5069515;28;20183;-67
2022/10/03 04:59:07;;;;;;;1.55;1.40;;;17.40;84.20;;;;;;5052532;28;20175;-67
2022/10/03 05:01:52;;;;;;;1.67;1.23;;;17.40;84.30;;;;;;5052763;28;20202;-67
2022/10/03 05:05:00;;;;;;;1.23;1.13;;;17.40;84.30;;;;;;5053713;28;20175;-67
2022/10/03 05:07:49;;;;;;;1.45;1.35;;;17.40;84.30;;;;;;5052088;28;20190;-67
2022/10/03 05:10:38;;;;;;;1.13;0.98;;;17.30;84.10;;;;;;5052587;28;20238;-67
2022/10/03 05:13:17;;;;;;;1.35;1.20;;;17.30;84.20;;;;;;5035757;28;20209;-66
2022/10/03 05:16:01;;;;;;;1.33;1.17;;;17.30;84.20;;;;;;5052273;28;20181;-67
2022/10/03 05:18:44;;;;;;;1.60;1.00;;;17.30;84.20;;;;;;5035678;28;20198;-67
2022/10/03 05:21:46;;;;;;;2.10;1.25;;;17.30;84.10;;;;;;5048849;28;20202;-67
2022/10/03 05:24:56;;;;;;;1.10;1.00;;;17.30;84.00;;;;;;5032135;28;20187;-67
2022/10/03 05:27:44;;;;;;;1.65;1.30;;;17.40;84.10;;;;;;5032315;28;20279;-69
2022/10/03 05:30:34;;;;;;;2.35;1.63;;;17.30;84.10;;;;;;5031505;28;20268;-67
2022/10/03 05:33:18;;;;;;;1.40;1.20;;;17.30;84.10;;;;;;5032268;28;20184;-67
2022/10/03 05:36:20;;;;;;;1.35;1.25;;;17.30;84.00;;;;;;5032072;28;20191;-67
2022/10/03 05:39:33;;;;;;;1.48;1.38;;;17.30;83.90;;;;;;5031851;28;20183;-67
2022/10/03 05:42:43;;;;;;;2.92;1.33;;;17.40;84.20;;;;;;4997290;28;20239;-67
2022/10/03 05:45:29;;;;;;;1.40;1.30;;;17.30;84.00;;;;;;5031763;28;20187;-67
2022/10/03 05:48:18;;;;;;;1.60;1.50;;;17.30;83.90;;;;;;5031663;28;20183;-67
2022/10/03 05:51:12;;;;;;;1.63;1.52;;;17.30;84.00;;;;;;5031682;28;20211;-67
2022/10/03 05:54:16;;;;;;;1.40;1.30;;;17.40;84.20;;;;;;5015539;28;20180;-67
2022/10/03 05:57:17;;;;;;;1.55;1.45;;;17.30;83.90;;;;;;5015340;28;20187;-67
2022/10/03 05:59:58;;;;;;;2.03;1.58;;;17.30;84.00;;;;;;5031599;28;20215;-67
2022/10/03 06:03:30;;;;;;;2.45;1.80;;;17.30;84.00;;;;;;5032666;28;20293;-67
2022/10/03 06:06:29;;;;;;;1.30;1.20;;;17.30;84.10;;;;;;5002066;28;20230;-67
2022/10/03 06:09:51;;;;;;;1.88;1.70;;;17.30;83.90;;;;;;5031470;28;20207;-67
2022/10/03 06:12:36;;;;;;;1.65;1.55;;;17.30;84.00;;;;;;5014828;28;20203;-67
2022/10/03 06:15:43;;;;;;;1.55;1.40;;;17.30;84.00;;;;;;5032498;28;20174;-67
2022/10/03 06:18:33;;;;;;;1.58;1.48;;;17.30;83.90;;;;;;5031172;28;20198;-67
2022/10/03 06:21:11;;;;;;;1.77;1.67;;;17.30;83.90;;;;;;5014719;28;20241;-67
2022/10/03 06:24:04;;;;;;;1.70;1.48;;;17.30;84.10;;;;;;5015168;28;20194;-67
2022/10/03 06:26:45;;;;;;;1.55;1.45;;;17.30;84.00;;;;;;5014825;28;20183;-67
2022/10/03 06:29:58;;;;;;;2.15;1.60;;;17.30;83.90;;;;;;5014587;28;20207;-67
2022/10/03 06:33:01;;;;;;;2.33;1.80;;;17.30;83.80;;;;;;5032705;28;20171;-67
2022/10/03 06:36:18;;;;;;;2.08;1.65;;;17.30;83.90;;;;;;5018854;28;20222;-67
2022/10/03 06:39:38;;;;;;;1.67;1.52;;;17.30;83.80;;;;;;5019202;28;20221;-67
2022/10/03 06:42:31;;;;;;;1.70;1.60;;;17.30;83.80;;;;;;5010035;28;20222;-67
2022/10/03 06:45:20;;;;;;;2.10;1.67;;;17.30;83.80;;;;;;5051069;28;20218;-67
2022/10/03 06:48:07;;;;;;;2.28;2.00;;;17.30;83.70;;;;;;5034320;28;20213;-68
2022/10/03 06:51:07;;;;;;;2.53;1.80;;;17.30;83.60;;;;;;5034329;28;20217;-67
2022/10/03 06:53:57;;;;;;;2.00;1.80;;;17.30;83.70;;;;;;5056283;28;20198;-67
2022/10/03 06:56:54;;;;;;;1.95;1.70;;;17.30;83.70;;;;;;5055120;28;20178;-67
2022/10/03 07:00:02;;;;;;;2.67;2.05;;;17.30;83.80;;;;;;5054792;28;20213;-67
2022/10/03 07:03:01;;;;;;;2.83;1.75;;;17.30;83.60;;;;;;5038357;28;20697;-67
2022/10/03 07:05:59;;;;;;;1.88;1.52;;;17.30;83.70;;;;;;5038072;28;20183;-67
2022/10/03 07:09:02;;;;;;;1.80;1.70;;;17.40;83.80;;;;;;5037789;28;20190;-67
2022/10/03 07:11:54;;;;;;;2.22;1.92;;;17.30;83.70;;;;;;5037879;28;20204;-67
2022/10/03 07:15:13;;;;;;;1.63;1.52;;;17.30;83.60;;;;;;5055831;28;20189;-67
2022/10/03 07:18:16;;;;;;;2.13;1.90;;;17.40;83.80;;;;;;5021949;28;20670;-67
2022/10/03 07:21:22;;;;;;;1.60;1.50;;;17.30;84.40;;;;;;5055605;28;20217;-67
2022/10/03 07:24:43;;;;;;;3.25;1.90;;;17.40;83.70;;;;;;5054757;28;20205;-67
2022/10/03 07:27:37;;;;;;;2.63;1.65;;;17.30;83.60;;;;;;5054203;28;20222;-67
2022/10/03 07:30:24;;;;;;;1.65;1.55;;;17.40;83.70;;;;;;5037416;28;20207;-67
2022/10/03 07:33:05;;;;;;;2.80;1.88;;;17.40;83.70;;;;;;5037592;28;20217;-67
2022/10/03 07:42:20;;;;;;;2.20;2.00;;;17.40;83.80;;;;;;5055220;28;20210;-67
2022/10/03 07:45:33;;;;;;;2.97;1.70;;;17.40;83.70;;;;;;5037255;28;20197;-67
2022/10/03 07:49:17;;;;;;;2.28;1.90;;;17.40;83.70;;;;;;5053851;28;20246;-67
2022/10/03 07:52:33;;;;;;;2.72;1.65;;;17.30;83.50;;;;;;4961109;28;20280;-67
2022/10/03 07:55:08;;;;;;;2.33;1.80;;;17.40;83.70;;;;;;4956417;28;20201;-67
2022/10/03 07:58:15;;;;;;;1.60;1.50;;;17.40;83.60;;;;;;5037301;28;20270;-67
2022/10/03 08:01:19;;;;;;;1.58;1.48;;;17.40;83.50;;;;;;5054916;28;20228;-67
2022/10/03 08:04:06;;;;;;;1.95;1.58;;;17.40;83.60;;;;;;5053889;28;20243;-67
2022/10/03 08:06:42;;;;;;;1.77;1.50;;;17.40;83.60;;;;;;5053691;28;20182;-67
2022/10/03 08:09:37;;;;;;;3.15;2.00;;;17.40;83.40;;;;;;5081136;22;20241;-68
2022/10/03 08:12:49;;;;;;;4.03;1.85;;;17.40;83.40;;;;;;5073989;28;20185;-68
2022/10/03 08:15:59;;;;;;;2.20;2.00;;;17.40;83.30;;;;;;5072769;28;20267;-68
2022/10/03 08:19:02;;;;;;;2.58;2.00;;;17.40;83.30;;;;;;5064358;28;20186;-68
2022/10/03 08:21:37;;;;;;;1.50;1.40;;;17.40;83.20;;;;;;5049209;28;20215;-69
2022/10/03 08:24:53;;;;;;;2.78;1.70;;;17.40;83.10;;;;;;5033817;28;20728;-69
2022/10/03 08:27:45;;;;;;;1.80;1.70;;;17.40;83.10;;;;;;5033729;28;20188;-68
2022/10/03 08:30:23;;;;;;;1.90;1.80;;;17.40;83.10;;;;;;5015955;28;20205;-68
2022/10/03 08:33:03;;;;;;;1.83;1.73;;;17.40;83.10;;;;;;5016308;28;20183;-69
2022/10/03 08:35:58;;;;;;;2.00;1.80;;;17.40;83.10;;;;;;5032686;28;20218;-68
2022/10/03 08:38:59;;;;;;;2.17;1.73;;;17.40;83.10;;;;;;5022359;28;20190;-69
2022/10/03 08:42:21;;;;;;;2.03;1.75;;;17.50;83.00;;;;;;5038405;28;20207;-68
2022/10/03 08:45:00;;;;;;;2.08;1.85;;;17.50;82.90;;;;;;5034030;28;20190;-70
2022/10/03 08:47:57;;;;;;;2.20;1.83;;;17.50;82.70;;;;;;5032274;28;20248;-70
2022/10/03 08:50:53;;;;;;;2.50;1.75;;;17.50;82.80;;;;;;5032306;28;20210;-70
2022/10/03 08:53:56;;;;;;;1.67;1.58;;;17.50;82.80;;;;;;5032433;28;20191;-70
2022/10/03 08:56:51;;;;;;;3.35;1.95;;;17.50;82.80;;;;;;5015441;28;20198;-70
2022/10/03 08:59:49;;;;;;;1.90;1.80;;;17.50;82.70;;;;;;5032276;28;20318;-69
2022/10/03 09:02:42;;;;;;;2.20;2.00;;;17.50;82.50;;;;;;5015346;28;20238;-69
2022/10/03 09:06:11;;;;;;;2.22;1.65;;;17.50;82.40;;;;;;5034872;28;20278;-70
2022/10/03 09:09:12;;;;;;;2.25;1.90;;;17.50;82.50;;;;;;5051760;28;20188;-70
2022/10/03 09:12:17;;;;;;;2.20;2.00;;;17.50;82.50;;;;;;5035143;28;20243;-69
2022/10/03 09:15:13;;;;;;;2.08;1.67;;;17.50;82.60;;;;;;5051645;28;20252;-70
2022/10/03 09:18:15;;;;;;;3.13;2.05;;;17.50;82.50;;;;;;5051648;28;20186;-70
2022/10/03 09:21:11;;;;;;;2.03;1.83;;;17.50;82.50;;;;;;5051819;28;20233;-69
2022/10/03 09:24:19;;;;;;;1.85;1.55;;;17.60;82.50;;;;;;5035294;28;20186;-70
2022/10/03 09:27:38;;;;;;;2.05;1.85;;;17.50;82.40;;;;;;5034823;28;20281;-70
2022/10/03 09:30:36;;;;;;;3.60;2.10;;;17.60;82.50;;;;;;5040158;28;20211;-70
2022/10/03 09:33:34;;;;;;;2.58;1.95;;;17.50;82.10;;;;;;5016759;28;20218;-70
2022/10/03 09:36:07;;;;;;;2.05;1.80;;;17.60;82.50;;;;;;5051520;28;20178;-69
2022/10/03 09:39:29;;;;;;;1.88;1.70;;;17.50;82.50;;;;;;5047116;28;20191;-69
2022/10/03 09:42:37;;;;;;;1.60;1.50;;;17.50;82.60;;;;;;5043629;28;20207;-68
2022/10/03 09:45:35;;;;;;;3.05;1.92;;;17.60;82.70;;;;;;5051962;28;20209;-69
2022/10/03 09:48:41;;;;;;;2.10;2.00;;;17.50;82.20;;;;;;5051702;28;20197;-69
2022/10/03 09:51:50;;;;;;;2.72;1.80;;;17.50;82.10;;;;;;5034890;28;20228;-69
2022/10/03 09:55:00;;;;;;;3.15;1.90;;;17.50;82.30;;;;;;5051436;28;20242;-69
2022/10/03 09:57:58;;;;;;;2.45;1.80;;;17.50;82.70;;;;;;5051362;28;20257;-69
2022/10/03 10:01:01;;;;;;;2.38;1.70;;;17.60;82.60;;;;;;5034749;28;20296;-69
2022/10/03 10:03:45;;;;;;;1.88;1.77;;;17.50;82.80;;;;;;5052572;28;20190;-69
2022/10/03 10:07:20;;;;;;;3.35;2.20;;;17.60;82.40;;;;;;5034753;28;20655;-69
2022/10/03 10:10:44;;;;;;;2.50;2.00;;;17.50;82.30;;;;;;4954793;28;20701;-69
2022/10/03 10:13:27;;;;;;;2.58;1.98;;;17.50;82.50;;;;;;5050668;28;20186;-69
2022/10/03 10:16:30;;;;;;;2.05;1.85;;;17.50;82.10;;;;;;5034944;28;20187;-69
2022/10/03 10:19:20;;;;;;;1.95;1.80;;;17.50;81.90;;;;;;5051359;28;20178;-69
2022/10/03 10:22:00;;;;;;;3.00;1.90;;;17.60;82.20;;;;;;5052330;28;20205;-69
2022/10/03 10:25:04;;;;;;;2.50;1.95;;;17.60;82.30;;;;;;5051378;28;20606;-68
2022/10/03 10:27:35;;;;;;;3.25;2.33;;;17.60;82.00;;;;;;5051556;28;20178;-68
2022/10/03 10:30:53;;;;;;;2.35;2.08;;;17.50;82.30;;;;;;5032062;28;20758;-69
2022/10/03 10:33:52;;;;;;;3.78;2.25;;;17.60;82.20;;;;;;5050449;28;20630;-69
2022/10/03 10:37:31;;;;;;;2.53;2.15;;;17.60;82.30;;;;;;5028967;28;20190;-69
2022/10/03 10:40:32;;;;;;;3.53;2.20;;;17.60;82.00;;;;;;5031224;28;20222;-68
2022/10/03 10:43:19;;;;;;;2.85;2.20;;;17.60;82.00;;;;;;5020566;28;20261;-69
2022/10/03 10:46:33;;;;;;;2.78;1.90;;;17.60;82.00;;;;;;5038302;28;20616;-69
2022/10/03 10:49:30;;;;;;;2.40;1.92;;;17.60;82.10;;;;;;5021761;28;20199;-68
2022/10/03 10:52:46;;;;;;;4.32;2.15;;;17.60;82.20;;;;;;5031241;28;20171;-69
2022/10/03 10:56:07;;;;;;;1.92;1.77;;;17.60;82.00;;;;;;5030911;28;20172;-69
2022/10/03 10:58:48;;;;;;;2.28;1.88;;;17.60;82.00;;;;;;5041833;28;20210;-69
2022/10/03 11:02:10;;;;;;;2.15;1.85;;;17.60;82.00;;;;;;5047100;28;20226;-69
2022/10/03 11:05:33;;;;;;;3.85;1.60;;;17.60;82.00;;;;;;5030623;28;20191;-69
2022/10/03 11:08:48;;;;;;;1.98;1.70;;;17.60;82.00;;;;;;5030760;28;20211;-69
2022/10/03 11:12:07;;;;;;;3.83;2.05;;;17.60;82.70;;;;;;5047353;28;20199;-69
2022/10/03 11:15:01;;;;;;;3.42;2.05;;;17.60;82.10;;;;;;5036461;28;20285;-69
2022/10/03 11:17:46;;;;;;;2.60;2.08;;;17.60;82.00;;;;;;5037610;28;20254;-68
2022/10/03 11:20:58;;;;;;;2.15;1.90;;;17.60;82.00;;;;;;5050696;28;20232;-68
2022/10/03 11:23:54;;;;;;;4.03;2.00;;;17.60;82.00;;;;;;5051007;28;20199;-69
2022/10/03 11:27:25;;;;;;;3.08;2.33;;;17.60;81.60;;;;;;5044325;28;20180;-69
2022/10/03 11:30:44;;;;;;;3.60;2.13;;;17.60;81.60;;;;;;5033828;28;20741;-69
2022/10/03 11:33:20;;;;;;;3.05;2.33;;;17.60;82.00;;;;;;5030578;28;20205;-69
2022/10/03 11:36:18;;;;;;;2.88;2.15;;;17.60;81.60;;;;;;5014098;28;20167;-69
2022/10/03 11:39:01;;;;;;;3.28;2.00;;;17.60;81.00;;;;;;5042472;28;20619;-69
2022/10/03 11:42:13;;;;;;;2.88;1.98;;;17.60;80.90;;;;;;5050496;28;20210;-68
2022/10/03 11:44:58;;;;;;;2.55;1.85;;;17.60;80.70;;;;;;5054290;28;20219;-69
2022/10/03 11:47:43;;;;;;;6.53;2.10;;;17.60;80.60;;;;;;5046970;28;20237;-69
2022/10/03 11:50:47;;;;;;;4.82;1.98;;;17.70;80.90;;;;;;5033944;28;20207;-69
2022/10/03 11:53:33;;;;;;;2.60;1.73;;;17.60;80.90;;;;;;5050799;28;20195;-69
2022/10/03 11:56:33;;;;;;;4.00;2.03;;;17.70;80.90;;;;;;5033964;28;20202;-69
2022/10/03 11:59:40;;;;;;;1.80;1.67;;;17.70;81.10;;;;;;5041080;28;20199;-68
2022/10/03 12:02:39;;;;;;;3.78;1.70;;;17.60;81.20;;;;;;5017664;28;20215;-69
2022/10/03 12:05:40;;;;;;;2.97;2.10;;;17.70;81.40;;;;;;5038317;28;20178;-69
2022/10/03 12:11:36;;;;;;;3.33;1.92;;;17.70;81.50;;;;;;5050607;28;20201;-68
2022/10/03 12:14:08;;;;;;;3.92;1.88;;;17.70;81.40;;;;;;5033756;28;20183;-68
2022/10/03 12:17:08;;;;;;;2.33;1.80;;;17.70;81.70;;;;;;5034261;28;20221;-69
2022/10/03 12:20:23;;;;;;;4.72;1.83;;;17.60;81.40;;;;;;5053515;28;20632;-69
2022/10/03 12:23:31;;;;;;;3.05;2.30;;;17.70;81.50;;;;;;5036631;28;20215;-69
2022/10/03 12:26:02;;;;;;;3.03;2.13;;;17.60;81.70;;;;;;5053274;28;20198;-69
2022/10/03 12:28:35;;;;;;;3.40;2.15;;;17.70;81.70;;;;;;5053315;28;20258;-69
2022/10/03 12:31:25;;;;;;;2.55;2.20;;;17.70;81.60;;;;;;5050692;28;20211;-69
2022/10/03 12:34:06;;;;;;;3.80;2.15;;;17.70;81.30;;;;;;5035325;28;20178;-69
2022/10/03 12:36:52;;;;;;;4.60;2.00;;;17.70;81.60;;;;;;5036698;28;20167;-68
2022/10/03 12:39:45;;;;;;;2.97;1.90;;;17.70;81.30;;;;;;5053497;28;20198;-69
2022/10/03 12:42:26;;;;;;;1.77;1.67;;;17.70;81.10;;;;;;5052989;28;20207;-69
2022/10/03 12:45:32;;;;;;;3.03;2.05;;;17.70;80.90;;;;;;5036469;28;20174;-68
2022/10/03 12:48:46;;;;;;;3.05;1.90;;;17.70;80.50;;;;;;5051780;28;20692;-69
2022/10/03 12:51:48;;;;;;;4.28;2.05;;;17.70;81.00;;;;;;5051686;28;20332;-69
2022/10/03 12:55:03;;;;;;;2.25;2.03;;;17.70;81.10;;;;;;5037725;28;20644;-69
2022/10/03 12:57:49;;;;;;;3.05;1.75;;;17.70;80.80;;;;;;5031885;28;20195;-69
2022/10/03 13:00:27;;;;;;;2.33;1.85;;;17.70;80.70;;;;;;5032349;28;20218;-69
2022/10/03 13:03:50;;;;;;;5.13;2.08;;;17.70;80.60;;;;;;5015575;28;20195;-69
2022/10/03 13:06:32;;;;;;;3.13;1.60;;;17.70;80.90;;;;;;5032128;28;20194;-69
2022/10/03 13:09:26;;;;;;;3.45;1.83;;;17.60;80.60;;;;;;5027790;28;20652;-70
2022/10/03 13:12:08;;;;;;;2.33;1.80;;;17.70;81.00;;;;;;5015527;28;20290;-69
2022/10/03 13:15:01;;;;;;;2.80;2.08;;;17.70;81.30;;;;;;5032071;28;20266;-69
2022/10/03 13:17:48;;;;;;;4.20;1.90;;;17.70;81.50;;;;;;5015217;28;20188;-69
2022/10/03 13:20:34;;;;;;;1.88;1.77;;;17.70;81.50;;;;;;5015101;28;20207;-69
2022/10/03 13:23:23;;;;;;;2.40;2.13;;;17.70;81.70;;;;;;5041605;28;20195;-69
2022/10/03 13:26:14;;;;;;;2.35;1.70;;;17.70;81.60;;;;;;5043127;28;20221;-69
2022/10/03 13:29:35;;;;;;;2.08;1.63;;;17.70;81.60;;;;;;5034585;28;20240;-69
2022/10/03 13:32:16;;;;;;;2.10;1.65;;;17.70;81.50;;;;;;4993418;28;20196;-69
2022/10/03 13:38:15;;;;;;;2.50;2.00;;;17.70;81.30;;;;;;5031526;28;20197;-69
2022/10/03 13:41:24;;;;;;;2.35;1.83;;;17.70;81.20;;;;;;5031323;28;20203;-70
2022/10/03 13:44:27;;;;;;;3.50;1.75;;;17.70;81.30;;;;;;5031202;28;20187;-69
2022/10/03 13:47:24;;;;;;;2.40;1.88;;;17.70;81.00;;;;;;5014724;28;20199;-69
2022/10/03 13:49:57;;;;;;;2.88;1.98;;;17.70;81.00;;;;;;5001149;28;20247;-69
2022/10/03 13:52:47;;;;;;;2.33;1.77;;;17.70;80.90;;;;;;5014862;28;20191;-69
2022/10/03 13:55:41;;;;;;;3.15;1.92;;;17.70;80.80;;;;;;5031094;28;20211;-69
2022/10/03 13:58:31;;;;;;;2.85;1.95;;;17.70;80.40;;;;;;5014451;28;20341;-69
2022/10/03 14:01:04;;;;;;;3.80;1.98;;;17.70;80.40;;;;;;5037082;28;20241;-69
2022/10/03 14:04:16;;;;;;;3.33;1.63;;;17.70;80.30;;;;;;5043808;28;20186;-69
2022/10/03 14:07:12;;;;;;;1.67;1.58;;;17.70;80.40;;;;;;5051146;28;20186;-69
2022/10/03 14:10:01;;;;;;;2.03;1.60;;;17.70;80.10;;;;;;5077862;22;20196;-67
2022/10/03 14:12:53;;;;;;;1.80;1.70;;;17.70;80.00;;;;;;5053930;28;20584;-66
2022/10/03 14:15:31;;;;;;;2.17;1.98;;;17.70;80.30;;;;;;5053844;28;20186;-67
2022/10/03 14:18:28;;;;;;;1.90;1.75;;;17.70;80.40;;;;;;5049390;28;20186;-66
2022/10/03 14:21:33;;;;;;;2.58;1.80;;;17.70;80.50;;;;;;5062366;28;20205;-67
2022/10/03 14:24:23;;;;;;;2.70;1.88;;;17.70;80.20;;;;;;5053930;28;20217;-67
2022/10/03 14:27:25;;;;;;;1.63;1.52;;;17.70;80.10;;;;;;5071730;28;20186;-66
2022/10/03 14:30:12;;;;;;;2.55;1.90;;;17.70;80.00;;;;;;5070412;28;20201;-67
2022/10/03 14:33:06;;;;;;;2.38;1.80;;;17.70;80.00;;;;;;5047164;28;20190;-66
2022/10/03 14:35:56;;;;;;;2.85;1.95;;;17.70;80.20;;;;;;5033832;28;20199;-66
2022/10/03 14:39:00;;;;;;;2.42;1.70;;;17.70;79.70;;;;;;5050247;28;20562;-66
2022/10/03 14:41:55;;;;;;;1.88;1.67;;;17.70;79.80;;;;;;5033816;28;20206;-66
2022/10/03 14:44:43;;;;;;;2.42;2.13;;;17.70;79.80;;;;;;5032015;28;20205;-66
2022/10/03 14:47:38;;;;;;;2.50;1.80;;;17.70;80.00;;;;;;5050010;28;20195;-66
2022/10/03 14:50:05;;;;;;;4.20;1.88;;;17.80;79.90;;;;;;5066847;28;20208;-67
2022/10/03 14:53:00;;;;;;;2.65;1.65;;;17.70;79.60;;;;;;5033669;28;20186;-66
2022/10/03 14:55:33;;;;;;;3.28;1.70;;;17.70;80.10;;;;;;5033370;28;20217;-66
2022/10/03 14:58:11;;;;;;;3.35;1.83;;;17.70;80.30;;;;;;5050042;28;20197;-66
2022/10/03 15:00:54;;;;;;;2.00;1.80;;;17.70;80.00;;;;;;5050075;28;20218;-66
2022/10/03 15:03:32;;;;;;;2.20;2.00;;;17.70;80.00;;;;;;5050200;28;20732;-66
2022/10/03 15:06:10;;;;;;;2.75;2.05;;;17.80;80.10;;;;;;5050172;28;20162;-66
2022/10/03 15:08:42;;;;;;;3.00;1.65;;;17.80;80.40;;;;;;5050046;28;20186;-66
2022/10/03 15:11:13;;;;;;;1.80;1.70;;;17.70;79.90;;;;;;5066507;28;20694;-66
2022/10/03 15:13:48;;;;;;;2.22;1.60;;;17.80;80.10;;;;;;5033042;28;20209;-66
2022/10/03 15:16:19;;;;;;;2.15;1.85;;;17.70;79.90;;;;;;5037227;28;20196;-66
2022/10/03 15:18:55;;;;;;;2.03;1.83;;;17.70;79.80;;;;;;5055064;28;20197;-66
2022/10/03 15:21:24;;;;;;;2.70;1.77;;;17.70;79.90;;;;;;5053758;28;20218;-66
2022/10/03 15:24:03;;;;;;;1.98;1.80;;;17.80;80.20;;;;;;5037404;28;20194;-66
2022/10/03 15:26:35;;;;;;;1.95;1.80;;;17.70;79.80;;;;;;5053826;28;20187;-66
2022/10/03 15:29:11;;;;;;;2.30;1.70;;;17.80;80.10;;;;;;5070616;28;20229;-66
2022/10/03 15:31:44;;;;;;;3.75;1.92;;;17.70;79.90;;;;;;5061005;28;20214;-66
2022/10/03 15:34:39;;;;;;;3.20;2.08;;;17.80;80.00;;;;;;5053675;28;20193;-67
2022/10/03 15:37:16;;;;;;;2.20;1.85;;;17.70;80.00;;;;;;5047602;28;20206;-65